Hauptseite
METAR-TAF:

METAR-TAF

Flughäfen :

Fliegerhorst Holzdorf

Holzdorf, Deutschland

Breite: 51-46N, Länge: 013-11E, Höhe: 79 m

Beobachtung

Neuester Wetterbericht von vor 1 Stunde und 2 Minuten, um 11:20 UTC
Wind 12 kt aus Ost/Südost
Temperatur 8°C
Luftfeuchtigkeit 71%
Luftdruck 1034 hPa
Sichtweite 10 km oder mehr
Leicht bewölkt in der Höhe von 2200 ft

METAR: ETSH 161120Z 11012KT 9999 FEW022 08/03 Q1034 BLU+

Zeit: 13:22 (12:22 UTC)

Prognose

Neuester Wetterbericht von vor 1 Stunde und 50 Minuten, um 10:32 UTC
Gültige Prognose vom 16 um 09 UTC bis 16 um 18 UTC
Wind 10 kt aus Ost
Sichtweite: 1100 m
Leicht bewölkt in der Höhe von 25000 ft

TAF: ETSH 161032Z 1609/1618 09010KT 9999 NSW FEW250 CANCEL 1100

Wetterbeobachtungen und Prognosen von mehr als 4000 Flughäfen (METAR und TAF Bericht).

Die verfügbaren Stationen werden durch gelbe und rote Markierungen auf der Karte dargestellt.

Führen Sie die Maus auf sie, um den Namen der Station zu sehen.

Darauf klicken, um die Beobachtung von Wetterbeobachtungen und Prognosen zu sehen.

Um die Karte zu ändern : klicken Sie auf den grünen Tasten mit einem schwarzen Kreuz Zum Vergrößern, auf den grünen Button mit einem Gedankenstrich zu verkleinern, oder auf die grünen Pfeile für benachbarte Karten.


METAR-TAF: